Time;durP1;ratioP1;P1;durP2;ratioP2;P2;SDS_P1;SDS_P2;PMS_P1;PMS_P2;Temp;Humidity;BMP_temperature;BMP_pressure;BME280_temperature;BME280_humidity;BME280_pressure;Samples;Min_cycle;Max_cycle;Signal;HPM_P1;HPM_P2
2023/07/23 00:02:16;;;;;;;;;;;;;;;17.17;45.93;100454.78;4999603;28;1155;-56
2023/07/23 00:04:42;;;;;;;;;;;;;;;17.17;45.91;100471.28;4999028;28;1071;-57
2023/07/23 00:07:07;;;;;;;;;;;;;;;17.24;45.71;100469.03;4999520;28;1068;-57
2023/07/23 00:09:33;;;;;;;;;;;;;;;16.99;46.13;100465.31;4998915;28;1906;-57
2023/07/23 00:11:58;;;;;;;;;;;;;;;17.22;45.66;100484.94;4999496;28;1087;-59
2023/07/23 00:14:24;;;;;;;;;;;;;;;17.30;45.54;100481.59;4999357;28;1439;-59
2023/07/23 00:16:50;;;;;;;;;;;;;;;17.17;45.80;100488.56;4998730;28;1035;-59
2023/07/23 00:19:19;;;;;;;;;;;;;;;17.18;45.98;100489.38;4999850;28;1063;-59
2023/07/23 00:21:47;;;;;;;;;;;;;;;17.19;45.83;100508.31;4999344;28;1111;-58
2023/07/23 00:24:16;;;;;;;;;;;;;;;17.05;46.46;100507.31;4999347;28;1067;-57
2023/07/23 00:26:42;;;;;;;;;;;;;;;17.21;46.04;100522.63;4998686;28;1138;-59
2023/07/23 00:29:07;;;;;;;;;;;;;;;17.03;46.30;100521.34;4998616;28;1913;-57
2023/07/23 00:31:33;;;;;;;;;;;;;;;17.15;46.27;100534.72;4997817;28;1302;-57
2023/07/23 00:33:58;;;;;;;;;;;;;;;17.15;46.08;100539.41;4998864;28;1052;-57
2023/07/23 00:36:25;;;;;;;;;;;;;;;17.15;46.27;100539.41;4999206;28;1148;-57
2023/07/23 00:38:51;;;;;;;;;;;;;;;17.17;46.24;100531.72;4999493;28;1183;-57
2023/07/23 00:41:17;;;;;;;;;;;;;;;17.18;45.92;100547.06;4998576;28;1139;-57
2023/07/23 00:43:43;;;;;;;;;;;;;;;17.14;45.86;100555.06;4997509;28;1079;-56
2023/07/23 00:46:08;;;;;;;;;;;;;;;17.09;46.23;100569.66;4999140;28;1230;-57
2023/07/23 00:48:34;;;;;;;;;;;;;;;17.13;45.99;100574.59;4998756;28;1975;-58
2023/07/23 00:50:59;;;;;;;;;;;;;;;17.17;46.03;100579.22;4998557;28;1028;-59
2023/07/23 00:53:25;;;;;;;;;;;;;;;17.14;45.86;100581.72;4997174;28;1040;-58
2023/07/23 00:55:52;;;;;;;;;;;;;;;17.19;45.84;100598.19;4997412;28;1234;-59
2023/07/23 00:58:17;;;;;;;;;;;;;;;17.10;45.82;100609.75;4998873;28;1152;-58
2023/07/23 01:00:43;;;;;;;;;;;;;;;17.20;45.91;100613.56;4997153;28;1052;-58
2023/07/23 01:03:08;;;;;;;;;;;;;;;17.15;45.76;100638.31;4997380;28;1186;-57
2023/07/23 01:05:34;;;;;;;;;;;;;;;17.30;45.55;100632.75;4998148;28;1063;-59
2023/07/23 01:08:00;;;;;;;;;;;;;;;17.13;46.15;100635.03;4997012;28;1229;-58
2023/07/23 01:10:25;;;;;;;;;;;;;;;17.12;46.01;100644.38;4998253;28;1910;-59
2023/07/23 01:12:51;;;;;;;;;;;;;;;17.14;46.15;100647.66;4996892;28;2244;-57
2023/07/23 01:15:17;;;;;;;;;;;;;;;17.14;46.04;100653.16;4980542;28;1176;-59
2023/07/23 01:17:43;;;;;;;;;;;;;;;17.15;46.05;100643.81;4996687;28;1186;-56
2023/07/23 01:20:09;;;;;;;;;;;;;;;17.13;45.87;100637.78;4998156;28;1163;-59
2023/07/23 01:22:34;;;;;;;;;;;;;;;17.26;45.83;100628.94;4998239;28;1135;-57
2023/07/23 01:25:00;;;;;;;;;;;;;;;17.06;46.17;100597.69;4996641;28;1057;-57
2023/07/23 01:27:26;;;;;;;;;;;;;;;17.13;46.14;100583.66;4998210;28;1135;-58
2023/07/23 01:29:51;;;;;;;;;;;;;;;17.23;45.55;100547.06;4997596;28;1969;-58
2023/07/23 01:32:17;;;;;;;;;;;;;;;17.23;45.86;100536.06;4997779;28;1056;-59
2023/07/23 01:34:43;;;;;;;;;;;;;;;17.17;45.92;100523.47;4996291;28;1242;-58
2023/07/23 01:37:10;;;;;;;;;;;;;;;17.04;46.20;100472.69;4996806;28;909;-59
2023/07/23 01:39:35;;;;;;;;;;;;;;;17.17;45.89;100422.63;4996561;28;1585;-60
2023/07/23 01:42:01;;;;;;;;;;;;;;;17.06;45.97;100432.84;4996352;28;1547;-60
2023/07/23 01:44:26;;;;;;;;;;;;;;;17.09;45.87;100437.78;4996609;28;1012;-59
2023/07/23 01:46:52;;;;;;;;;;;;;;;17.05;45.85;100446.88;4996257;28;1188;-60
2023/07/23 01:49:17;;;;;;;;;;;;;;;17.10;45.81;100477.88;4995890;28;1902;-60
2023/07/23 01:51:43;;;;;;;;;;;;;;;17.08;45.76;100479.28;4997517;28;1067;-61
2023/07/23 01:54:08;;;;;;;;;;;;;;;17.10;45.70;100490.81;4995868;28;1227;-60
2023/07/23 01:56:34;;;;;;;;;;;;;;;17.08;45.75;100507.59;4996399;28;1502;-60
2023/07/23 01:58:59;;;;;;;;;;;;;;;17.09;45.67;100517.44;5004859;28;1390;-58
2023/07/23 02:01:25;;;;;;;;;;;;;;;17.09;45.54;100514.69;5011417;28;1363;-57
2023/07/23 02:03:51;;;;;;;;;;;;;;;16.98;45.81;100510.38;4992800;28;1144;-57
2023/07/23 02:06:16;;;;;;;;;;;;;;;17.03;45.76;100504.03;4996911;28;898;-57
2023/07/23 02:08:42;;;;;;;;;;;;;;;17.06;45.90;100509.78;4995306;28;1906;-57
2023/07/23 02:11:07;;;;;;;;;;;;;;;17.08;45.69;100523.22;4997677;28;1136;-57
2023/07/23 02:13:33;;;;;;;;;;;;;;;17.15;45.57;100531.97;4997292;28;1095;-58
2023/07/23 02:15:58;;;;;;;;;;;;;;;17.04;45.96;100528.47;4997322;28;1024;-57
2023/07/23 02:18:24;;;;;;;;;;;;;;;17.03;45.65;100532.31;4995482;28;1199;-57
2023/07/23 02:20:50;;;;;;;;;;;;;;;17.02;45.68;100547.16;4995968;28;1537;-57
2023/07/23 02:23:19;;;;;;;;;;;;;;;17.06;45.41;100559.22;4997072;28;1087;-58
2023/07/23 02:25:47;;;;;;;;;;;;;;;17.12;45.59;100546.28;4995883;28;1147;-58
2023/07/23 02:28:12;;;;;;;;;;;;;;;17.09;45.34;100550.41;4995149;28;1253;-56
2023/07/23 02:30:38;;;;;;;;;;;;;;;17.05;45.69;100554.00;4996582;28;1910;-58
2023/07/23 02:33:03;;;;;;;;;;;;;;;16.99;45.69;100569.69;4995726;28;1163;-58
2023/07/23 02:35:29;;;;;;;;;;;;;;;16.96;45.98;100569.44;4996782;28;1139;-58
2023/07/23 02:37:54;;;;;;;;;;;;;;;17.05;45.51;100582.28;4996606;28;1211;-56
2023/07/23 02:40:20;;;;;;;;;;;;;;;16.90;45.88;100585.09;4996977;28;1079;-58
2023/07/23 02:42:47;;;;;;;;;;;;;;;16.85;46.10;100585.94;4995187;28;1263;-58
2023/07/23 02:45:13;;;;;;;;;;;;;;;16.80;46.21;100604.34;4996996;28;1024;-57
2023/07/23 02:47:38;;;;;;;;;;;;;;;16.89;46.10;100605.47;4995455;28;1666;-58
2023/07/23 02:50:04;;;;;;;;;;;;;;;17.02;45.54;100612.28;4995410;28;1987;-59
2023/07/23 02:52:29;;;;;;;;;;;;;;;16.95;45.88;100606.25;4995216;28;1124;-58
2023/07/23 02:54:55;;;;;;;;;;;;;;;16.92;46.04;100600.22;4996508;28;857;-59
2023/07/23 02:57:20;;;;;;;;;;;;;;;17.00;45.62;100609.81;4996678;28;1087;-57
2023/07/23 02:59:46;;;;;;;;;;;;;;;16.96;45.96;100603.22;4997093;28;1059;-57
2023/07/23 03:02:14;;;;;;;;;;;;;;;16.97;45.96;100604.88;4992357;28;1356;-58
2023/07/23 03:04:41;;;;;;;;;;;;;;;17.02;45.95;100604.84;5008111;28;1283;-60
2023/07/23 03:07:09;;;;;;;;;;;;;;;17.07;45.61;100604.03;5002383;28;1163;-60
2023/07/23 03:09:35;;;;;;;;;;;;;;;16.96;45.89;100630.69;4995913;28;2037;-65
2023/07/23 03:12:00;;;;;;;;;;;;;;;17.06;45.50;100641.63;4996286;28;1111;-59
2023/07/23 03:14:26;;;;;;;;;;;;;;;16.98;45.68;100661.44;4996899;28;1069;-58
2023/07/23 03:16:51;;;;;;;;;;;;;;;16.96;45.89;100669.16;4998961;28;1136;-61
2023/07/23 03:19:17;;;;;;;;;;;;;;;16.92;45.84;100679.03;4999139;28;1092;-62
2023/07/23 03:21:42;;;;;;;;;;;;;;;16.89;46.20;100696.09;5000633;28;1155;-62
2023/07/23 03:24:08;;;;;;;;;;;;;;;16.98;46.04;100694.41;5000354;28;1111;-68
2023/07/23 03:26:33;;;;;;;;;;;;;;;16.90;45.81;100676.59;5000290;28;1027;-63
2023/07/23 03:28:59;;;;;;;;;;;;;;;16.95;46.06;100662.00;5000164;28;1979;-62
2023/07/23 03:31:24;;;;;;;;;;;;;;;16.91;45.97;100644.44;4998275;28;1118;-62
2023/07/23 03:33:50;;;;;;;;;;;;;;;16.81;46.08;100634.28;5010874;28;1478;-62
2023/07/23 03:36:15;;;;;;;;;;;;;;;17.03;45.43;100631.22;5003914;28;1217;-62
2023/07/23 03:38:41;;;;;;;;;;;;;;;16.88;45.85;100601.88;5001989;28;1470;-63
2023/07/23 03:41:07;;;;;;;;;;;;;;;17.01;45.55;100573.00;5012737;28;1019;-61
2023/07/23 03:43:32;;;;;;;;;;;;;;;17.04;45.45;100577.94;4999251;28;897;-63
2023/07/23 03:45:57;;;;;;;;;;;;;;;16.96;45.44;100580.41;4998713;28;1215;-62
2023/07/23 03:48:23;;;;;;;;;;;;;;;16.88;45.68;100601.03;4999638;28;1922;-63
2023/07/23 03:50:48;;;;;;;;;;;;;;;17.01;45.33;100611.47;5008730;28;1044;-64
2023/07/23 03:53:14;;;;;;;;;;;;;;;16.91;45.57;100627.97;4998842;28;1332;-66
2023/07/23 03:55:39;;;;;;;;;;;;;;;16.94;45.92;100638.38;4999626;28;1226;-58
2023/07/23 03:58:05;;;;;;;;;;;;;;;16.88;45.92;100636.72;4997488;28;1258;-64
2023/07/23 04:00:30;;;;;;;;;;;;;;;17.03;45.53;100635.91;4999752;28;1084;-62
2023/07/23 04:02:56;;;;;;;;;;;;;;;17.02;45.65;100651.53;4999496;28;1144;-58
2023/07/23 04:05:21;;;;;;;;;;;;;;;16.92;45.87;100655.13;4987928;28;1078;-57
2023/07/23 04:07:47;;;;;;;;;;;;;;;16.91;45.77;100638.94;4998445;28;1214;-62
2023/07/23 04:10:12;;;;;;;;;;;;;;;17.03;45.42;100642.19;4999184;28;1906;-62
2023/07/23 04:12:38;;;;;;;;;;;;;;;16.93;45.84;100626.56;4999577;28;1068;-65
2023/07/23 04:15:03;;;;;;;;;;;;;;;16.97;45.87;100613.13;4999412;28;1136;-64
2023/07/23 04:17:29;;;;;;;;;;;;;;;16.89;45.75;100599.97;4997829;28;1193;-57
2023/07/23 04:19:54;;;;;;;;;;;;;;;16.98;45.75;100595.50;4998579;28;930;-62
2023/07/23 04:22:20;;;;;;;;;;;;;;;16.97;46.08;100607.63;4999462;28;1136;-61
2023/07/23 04:24:45;;;;;;;;;;;;;;;16.94;45.76;100602.66;4999335;28;1119;-63
2023/07/23 04:27:11;;;;;;;;;;;;;;;16.96;45.81;100613.38;4999172;28;1223;-63
2023/07/23 04:29:36;;;;;;;;;;;;;;;16.90;45.84;100610.66;4997210;28;1906;-63
2023/07/23 04:32:02;;;;;;;;;;;;;;;16.86;46.15;100615.03;4999036;28;835;-65
2023/07/23 04:34:28;;;;;;;;;;;;;;;16.83;45.96;100609.28;4999179;28;1144;-64
2023/07/23 04:36:53;;;;;;;;;;;;;;;16.90;45.94;100598.84;4998630;28;1142;-64
2023/07/23 04:39:19;;;;;;;;;;;;;;;16.91;45.80;100612.31;4999000;28;1123;-63
2023/07/23 04:41:45;;;;;;;;;;;;;;;17.00;45.87;100611.72;4981712;28;1168;-63
2023/07/23 04:44:11;;;;;;;;;;;;;;;16.98;45.68;100602.94;4998446;28;917;-64
2023/07/23 04:46:36;;;;;;;;;;;;;;;17.01;45.61;100594.13;4998985;28;1148;-66
2023/07/23 04:49:01;;;;;;;;;;;;;;;16.95;46.04;100606.25;4998424;28;1971;-63
2023/07/23 04:51:27;;;;;;;;;;;;;;;18.24;44.72;100598.06;4998719;28;1152;-64
2023/07/23 04:53:52;;;;;;;;;;;;;;;17.90;45.96;100598.84;4998705;28;1198;-62
2023/07/23 04:56:18;;;;;;;;;;;;;;;17.73;46.51;100593.75;4997275;28;941;-62
2023/07/23 04:58:43;;;;;;;;;;;;;;;17.75;47.11;100597.88;4997037;28;1234;-63
2023/07/23 05:01:10;;;;;;;;;;;;;;;17.66;47.46;100607.00;4998688;28;1190;-59
2023/07/23 05:03:35;;;;;;;;;;;;;;;17.47;48.41;100584.84;4998531;28;1164;-65
2023/07/23 05:06:02;;;;;;;;;;;;;;;17.51;48.73;100608.72;4998597;28;1068;-66
2023/07/23 05:08:28;;;;;;;;;;;;;;;17.54;50.38;100599.91;4997878;28;1898;-66
2023/07/23 05:10:57;;;;;;;;;;;;;;;17.45;50.31;100585.94;4985604;28;1056;-64
2023/07/23 05:13:23;;;;;;;;;;;;;;;17.36;50.71;100581.34;4998056;28;1215;-65
2023/07/23 05:15:48;;;;;;;;;;;;;;;17.35;50.72;100586.00;4998702;28;1127;-65
2023/07/23 05:18:13;;;;;;;;;;;;;;;17.40;51.18;100608.00;4998266;28;1118;-65
2023/07/23 05:20:39;;;;;;;;;;;;;;;17.45;53.76;100588.69;4998284;28;933;-55
2023/07/23 05:23:04;;;;;;;;;;;;;;;17.57;55.65;100595.78;4997720;28;1140;-48
2023/07/23 05:25:30;;;;;;;;;;;;;;;17.58;56.71;100606.47;4997547;28;1481;-45
2023/07/23 05:27:56;;;;;;;;;;;;;;;17.53;57.39;100605.69;4997934;28;1127;-47
2023/07/23 05:30:21;;;;;;;;;;;;;;;17.53;57.61;100600.19;4997612;28;1922;-47
2023/07/23 05:32:47;;;;;;;;;;;;;;;17.57;57.99;100606.78;4997475;28;928;-50
2023/07/23 05:35:12;;;;;;;;;;;;;;;17.70;57.98;100595.16;4998173;28;1108;-46
2023/07/23 05:37:38;;;;;;;;;;;;;;;17.65;58.21;100597.13;4997253;28;1131;-46
2023/07/23 05:40:04;;;;;;;;;;;;;;;17.72;58.31;100601.16;4996569;28;1024;-47
2023/07/23 05:42:29;;;;;;;;;;;;;;;17.76;58.49;100584.94;4997295;28;1108;-45
2023/07/23 05:44:55;;;;;;;;;;;;;;;17.70;58.69;100586.09;4996859;28;886;-47
2023/07/23 05:47:20;;;;;;;;;;;;;;;17.71;59.03;100566.53;4997791;28;1153;-50
2023/07/23 05:49:46;;;;;;;;;;;;;;;17.76;59.07;100590.44;4996905;28;2005;-48
2023/07/23 05:52:11;;;;;;;;;;;;;;;17.82;59.25;100591.22;4997598;28;1099;-49
2023/07/23 05:54:37;;;;;;;;;;;;;;;17.83;58.92;100601.13;4984389;28;1036;-49
2023/07/23 05:57:03;;;;;;;;;;;;;;;17.85;59.13;100590.63;4997176;28;829;-49
2023/07/23 05:59:28;;;;;;;;;;;;;;;17.82;58.79;100592.03;4997425;28;1203;-47
2023/07/23 06:01:53;;;;;;;;;;;;;;;17.75;58.29;100608.03;4996231;28;1045;-52
2023/07/23 06:04:20;;;;;;;;;;;;;;;17.77;57.36;100600.34;4997467;28;1028;-48
2023/07/23 06:06:46;;;;;;;;;;;;;;;17.67;56.84;100606.72;4996504;28;866;-47
2023/07/23 06:09:12;;;;;;;;;;;;;;;17.65;56.87;100608.09;4996378;28;1905;-49
2023/07/23 06:11:37;;;;;;;;;;;;;;;17.66;56.55;100594.06;4997145;28;1080;-48
2023/07/23 06:14:03;;;;;;;;;;;;;;;17.62;56.25;100601.25;4997815;28;1055;-54
2023/07/23 06:16:31;;;;;;;;;;;;;;;17.64;56.04;100599.03;4996438;28;1091;-49
2023/07/23 06:18:57;;;;;;;;;;;;;;;17.58;56.11;100603.72;4995859;28;1108;-43
2023/07/23 06:21:22;;;;;;;;;;;;;;;17.50;55.91;100590.63;4995927;28;1024;-49
2023/07/23 06:23:48;;;;;;;;;;;;;;;17.56;55.90;100613.41;4995702;28;1112;-46
2023/07/23 06:26:13;;;;;;;;;;;;;;;17.45;55.77;100605.19;4996216;28;1029;-49
2023/07/23 06:28:39;;;;;;;;;;;;;;;17.58;55.57;100597.41;4995811;28;1906;-48
2023/07/23 06:31:04;;;;;;;;;;;;;;;17.52;55.53;100591.13;4995467;28;1076;-47
2023/07/23 06:33:30;;;;;;;;;;;;;;;17.44;55.75;100584.28;4996065;28;1076;-43
2023/07/23 06:35:55;;;;;;;;;;;;;;;17.52;55.54;100590.31;4995815;28;1055;-48
2023/07/23 06:38:21;;;;;;;;;;;;;;;17.43;55.68;100579.94;4996047;28;1037;-49
2023/07/23 06:40:47;;;;;;;;;;;;;;;17.45;55.79;100590.63;4995721;28;1079;-50
2023/07/23 06:43:16;;;;;;;;;;;;;;;17.48;55.53;100594.75;4995295;28;1132;-50
2023/07/23 06:45:45;;;;;;;;;;;;;;;17.44;55.81;100591.72;4995924;28;1164;-48
2023/07/23 06:48:11;;;;;;;;;;;;;;;17.45;55.69;100580.44;4995729;28;1029;-49
2023/07/23 06:50:36;;;;;;;;;;;;;;;17.48;55.32;100594.75;4995257;28;1906;-52
2023/07/23 06:53:02;;;;;;;;;;;;;;;17.42;55.73;100592.03;4995677;28;1055;-48
2023/07/23 06:55:27;;;;;;;;;;;;;;;17.41;55.80;100590.38;4995185;28;1028;-48
2023/07/23 06:57:53;;;;;;;;;;;;;;;17.53;55.51;100594.69;4996044;28;1022;-48
2023/07/23 07:00:18;;;;;;;;;;;;;;;17.45;55.58;100604.38;4995409;28;1446;-48
2023/07/23 07:02:44;;;;;;;;;;;;;;;17.49;55.68;100604.63;4995269;28;1005;-48
2023/07/23 07:05:09;;;;;;;;;;;;;;;17.45;55.66;100610.69;4995701;28;1021;-50
2023/07/23 07:07:35;;;;;;;;;;;;;;;17.45;55.49;100610.69;4994932;28;1147;-48
2023/07/23 07:10:05;;;;;;;;;;;;;;;17.52;55.66;100598.56;4994947;28;1906;-50
2023/07/23 07:12:30;;;;;;;;;;;;;;;17.49;55.69;100615.63;4995803;28;1021;-48
2023/07/23 07:14:56;;;;;;;;;;;;;;;17.52;55.55;100609.56;4995854;28;1047;-49
2023/07/23 07:17:21;;;;;;;;;;;;;;;17.47;55.73;100601.34;4995443;28;1111;-45
2023/07/23 07:19:47;;;;;;;;;;;;;;;17.51;55.61;100599.66;4994457;28;1033;-49
2023/07/23 07:22:12;;;;;;;;;;;;;;;17.50;55.77;100603.50;4994951;28;1205;-50
2023/07/23 07:24:38;;;;;;;;;;;;;;;17.52;55.79;100612.31;4995389;28;1080;-48
2023/07/23 07:27:08;;;;;;;;;;;;;;;17.48;55.69;100603.00;4993898;28;1187;-49
2023/07/23 07:29:34;;;;;;;;;;;;;;;17.49;55.84;100608.22;4995162;28;1969;-45
2023/07/23 07:31:59;;;;;;;;;;;;;;;17.49;55.85;100615.63;4995041;28;1072;-45
2023/07/23 07:34:25;;;;;;;;;;;;;;;17.50;56.00;100628.25;4994914;28;1047;-46
2023/07/23 07:36:51;;;;;;;;;;;;;;;17.50;55.82;100609.00;4995403;28;1063;-50
2023/07/23 07:39:16;;;;;;;;;;;;;;;17.54;55.79;100613.66;4995113;28;1171;-43
2023/07/23 07:41:42;;;;;;;;;;;;;;;17.55;55.72;100617.25;4995067;28;1195;-46
2023/07/23 07:44:07;;;;;;;;;;;;;;;17.49;55.88;100612.88;4993402;28;1323;-45
2023/07/23 07:46:33;;;;;;;;;;;;;;;17.51;55.58;100616.16;4994989;28;1160;-48
2023/07/23 07:48:59;;;;;;;;;;;;;;;17.56;55.58;100618.91;4994767;28;1906;-50
2023/07/23 07:51:25;;;;;;;;;;;;;;;17.55;55.81;100636.50;4994748;28;1371;-48
2023/07/23 07:53:50;;;;;;;;;;;;;;;17.52;55.94;100634.31;4995152;28;1188;-48
2023/07/23 07:56:17;;;;;;;;;;;;;;;17.56;55.92;100629.88;4994850;28;1102;-50
2023/07/23 07:58:45;;;;;;;;;;;;;;;17.44;55.81;100610.97;4996336;28;1155;-49
2023/07/23 08:01:11;;;;;;;;;;;;;;;17.50;55.75;100617.25;4995696;28;1126;-46
2023/07/23 08:03:37;;;;;;;;;;;;;;;17.50;55.88;100628.25;4999000;28;1060;-48
2023/07/23 08:06:03;;;;;;;;;;;;;;;17.54;55.80;100629.34;4999354;28;1048;-48
2023/07/23 08:08:29;;;;;;;;;;;;;;;17.53;55.99;100627.69;4998017;28;1906;-49
2023/07/23 08:10:58;;;;;;;;;;;;;;;17.55;55.94;100631.00;4998706;28;1278;-49
2023/07/23 08:13:24;;;;;;;;;;;;;;;17.59;55.88;100641.13;4999316;28;1167;-49
2023/07/23 08:15:50;;;;;;;;;;;;;;;17.47;56.05;100637.06;4998787;28;1156;-45
2023/07/23 08:18:16;;;;;;;;;;;;;;;17.54;55.87;100635.66;4998860;28;1068;-47
2023/07/23 08:20:42;;;;;;;;;;;;;;;17.53;55.94;100638.69;4998388;28;1103;-48
2023/07/23 08:23:07;;;;;;;;;;;;;;;17.54;55.93;100629.34;4999403;28;1163;-48
2023/07/23 08:25:33;;;;;;;;;;;;;;;17.53;55.88;100645.03;4998453;28;1119;-49
2023/07/23 08:28:00;;;;;;;;;;;;;;;17.53;55.93;100627.69;4998754;28;1028;-49
2023/07/23 08:30:26;;;;;;;;;;;;;;;17.47;56.00;100637.88;4998587;28;1910;-47
2023/07/23 08:32:51;;;;;;;;;;;;;;;17.52;56.14;100637.88;4998664;28;971;-45
2023/07/23 08:35:17;;;;;;;;;;;;;;;17.53;55.82;100644.19;4998013;28;1047;-43
2023/07/23 08:37:43;;;;;;;;;;;;;;;17.46;55.83;100630.78;4998804;28;1060;-48
2023/07/23 08:40:08;;;;;;;;;;;;;;;17.55;55.77;100631.00;4998977;28;1167;-49
2023/07/23 08:42:40;;;;;;;;;;;;;;;17.52;55.92;100637.06;4998626;28;1142;-46
2023/07/23 08:45:09;;;;;;;;;;;;;;;17.48;55.95;100641.47;4998402;28;984;-46
2023/07/23 08:47:36;;;;;;;;;;;;;;;17.53;55.79;100646.94;4998406;28;1071;-47
2023/07/23 08:50:02;;;;;;;;;;;;;;;17.51;55.88;100635.41;4998300;28;1902;-45
2023/07/23 08:52:27;;;;;;;;;;;;;;;17.44;56.12;100647.53;4998494;28;1167;-48
2023/07/23 08:54:53;;;;;;;;;;;;;;;17.52;55.95;100635.13;4997331;28;1161;-46
2023/07/23 08:57:18;;;;;;;;;;;;;;;17.45;55.84;100643.66;4998561;28;931;-50
2023/07/23 08:59:44;;;;;;;;;;;;;;;17.48;55.96;100650.53;4996903;28;1068;-48
2023/07/23 09:02:10;;;;;;;;;;;;;;;17.41;55.93;100630.78;4998680;28;1199;-49
2023/07/23 09:04:35;;;;;;;;;;;;;;;17.46;55.76;100647.25;4998242;28;1108;-47
2023/07/23 09:07:01;;;;;;;;;;;;;;;17.42;56.04;100640.69;4998150;28;1127;-48
2023/07/23 09:09:26;;;;;;;;;;;;;;;17.50;55.93;100662.09;4997921;28;1970;-49
2023/07/23 09:11:52;;;;;;;;;;;;;;;17.48;55.97;100664.28;4998084;28;1056;-47
2023/07/23 09:14:17;;;;;;;;;;;;;;;17.49;55.83;100665.09;4997849;28;1167;-47
2023/07/23 09:16:43;;;;;;;;;;;;;;;17.37;55.96;100663.50;4996570;28;1099;-46
2023/07/23 09:19:09;;;;;;;;;;;;;;;17.46;55.83;100663.75;4998189;28;1159;-49
2023/07/23 09:21:35;;;;;;;;;;;;;;;17.48;55.82;100675.28;4997436;28;1095;-45
2023/07/23 09:24:06;;;;;;;;;;;;;;;17.42;55.76;100677.22;4998065;28;1119;-48
2023/07/23 09:26:31;;;;;;;;;;;;;;;17.50;55.70;100686.00;4997743;28;1143;-47
2023/07/23 09:28:57;;;;;;;;;;;;;;;17.44;56.19;100686.00;4997903;28;1973;-46
2023/07/23 09:31:26;;;;;;;;;;;;;;;17.45;56.00;100679.41;4997354;28;1106;-45
2023/07/23 09:33:53;;;;;;;;;;;;;;;17.45;55.92;100687.66;4997457;28;825;-49
2023/07/23 09:36:19;;;;;;;;;;;;;;;17.49;55.97;100696.19;4998050;28;1155;-49
2023/07/23 09:38:54;;;;;;;;;;;;;;;17.46;55.77;100702.25;4998396;28;1152;-45
2023/07/23 09:41:20;;;;;;;;;;;;;;;17.55;55.78;100695.03;4997662;28;1063;-48
2023/07/23 09:43:46;;;;;;;;;;;;;;;17.45;55.78;100695.91;4997557;28;1135;-49
2023/07/23 09:46:11;;;;;;;;;;;;;;;17.40;56.04;100695.09;4997277;28;1139;-45
2023/07/23 09:48:44;;;;;;;;;;;;;;;17.47;55.79;100708.56;4997232;28;1973;-49
2023/07/23 09:51:10;;;;;;;;;;;;;;;17.41;55.82;100703.06;4995801;28;1097;-47
2023/07/23 09:53:39;;;;;;;;;;;;;;;17.48;55.96;100696.47;4997173;28;1082;-49
2023/07/23 09:56:04;;;;;;;;;;;;;;;17.43;56.08;100689.03;4997189;28;1063;-49
2023/07/23 09:58:30;;;;;;;;;;;;;;;17.50;55.83;100706.06;4997082;28;849;-49
2023/07/23 10:00:56;;;;;;;;;;;;;;;17.43;56.00;100695.38;4996026;28;1132;-50
2023/07/23 10:03:21;;;;;;;;;;;;;;;17.47;56.14;100700.31;4995408;28;1150;-45
2023/07/23 10:05:47;;;;;;;;;;;;;;;17.49;55.92;100692.59;4996304;28;1064;-46
2023/07/23 10:08:12;;;;;;;;;;;;;;;17.40;55.97;100695.09;4995212;28;1196;-49
2023/07/23 10:10:38;;;;;;;;;;;;;;;17.47;56.01;100711.31;4994520;28;1978;-45
2023/07/23 10:13:03;;;;;;;;;;;;;;;17.43;56.17;100705.53;4996186;28;1111;-47
2023/07/23 10:15:29;;;;;;;;;;;;;;;17.47;56.40;100705.81;4995650;28;1458;-48
2023/07/23 10:17:56;;;;;;;;;;;;;;;17.42;56.42;100688.22;4996031;28;1136;-48
2023/07/23 10:20:21;;;;;;;;;;;;;;;17.49;56.32;100700.84;4996144;28;1092;-45
2023/07/23 10:22:47;;;;;;;;;;;;;;;17.40;56.41;100701.44;4994823;28;984;-49
2023/07/23 10:25:23;;;;;;;;;;;;;;;17.48;56.11;100696.47;4994377;28;1080;-46
2023/07/23 10:27:56;;;;;;;;;;;;;;;17.52;56.14;100697.53;4996051;28;1067;-47
2023/07/23 10:30:21;;;;;;;;;;;;;;;17.43;56.55;100706.38;4983509;28;1977;-46
2023/07/23 10:33:05;;;;;;;;;;;;;;;17.43;56.20;100698.13;4995757;28;1028;-49
2023/07/23 10:35:49;;;;;;;;;;;;;;;17.50;56.41;100688.75;4994706;28;1300;-47
2023/07/23 10:38:19;;;;;;;;;;;;;;;17.53;56.13;100702.75;4995733;28;1135;-44
2023/07/23 10:40:44;;;;;;;;;;;;;;;17.48;56.47;100707.44;4994407;28;1234;-46
2023/07/23 10:43:13;;;;;;;;;;;;;;;17.51;56.24;100706.88;4995568;28;1127;-47
2023/07/23 10:45:38;;;;;;;;;;;;;;;17.32;56.05;100684.69;4994956;28;1123;-47
2023/07/23 10:48:04;;;;;;;;;;;;;;;17.53;56.29;100710.16;4995916;28;1282;-50
2023/07/23 10:50:30;;;;;;;;;;;;;;;17.50;56.08;100705.22;4995427;28;1902;-46
2023/07/23 10:53:05;;;;;;;;;;;;;;;17.55;56.41;100713.47;4995731;28;1128;-46
2023/07/23 10:55:40;;;;;;;;;;;;;;;17.56;56.24;100726.94;4995296;28;1126;-40
2023/07/23 10:58:12;;;;;;;;;;;;;;;17.55;56.25;100721.72;4984394;28;890;-47
2023/07/23 11:00:42;;;;;;;;;;;;;;;17.54;56.10;100736.56;4996395;28;1052;-46
2023/07/23 11:03:11;;;;;;;;;;;;;;;17.55;56.13;100727.22;4995175;28;1127;-44
2023/07/23 11:05:40;;;;;;;;;;;;;;;17.48;56.39;100740.44;4994509;28;952;-45
2023/07/23 11:08:11;;;;;;;;;;;;;;;17.53;56.13;100722.00;4995902;28;1145;-48
2023/07/23 11:10:56;;;;;;;;;;;;;;;17.57;56.25;100714.00;4995967;28;1969;-47
2023/07/23 11:13:22;;;;;;;;;;;;;;;17.54;56.12;100715.38;4994428;28;1208;-44
2023/07/23 11:15:47;;;;;;;;;;;;;;;17.58;56.20;100715.66;4995391;28;1278;-48
2023/07/23 11:18:13;;;;;;;;;;;;;;;17.56;56.24;100715.13;4996152;28;1306;-48
2023/07/23 11:20:43;;;;;;;;;;;;;;;17.55;56.22;100707.97;4996411;28;1302;-50
2023/07/23 11:23:10;;;;;;;;;;;;;;;17.57;56.23;100711.25;4995941;28;1223;-49
2023/07/23 11:25:36;;;;;;;;;;;;;;;17.57;56.14;100722.25;4996126;28;1211;-45
2023/07/23 11:28:02;;;;;;;;;;;;;;;17.56;55.99;100712.38;4994858;28;1172;-45
2023/07/23 11:30:30;;;;;;;;;;;;;;;17.62;56.12;100713.97;4995946;28;1918;-40
2023/07/23 11:32:55;;;;;;;;;;;;;;;17.58;56.30;100724.72;4995624;28;1162;-50
2023/07/23 11:35:21;;;;;;;;;;;;;;;17.58;56.32;100726.66;4996001;28;894;-48
2023/07/23 11:37:48;;;;;;;;;;;;;;;17.49;56.21;100709.06;4998592;28;1175;-45
2023/07/23 11:40:19;;;;;;;;;;;;;;;17.60;56.16;100718.97;5000091;28;1175;-47
2023/07/23 11:42:45;;;;;;;;;;;;;;;17.65;56.00;100740.91;5000060;28;1127;-44
2023/07/23 11:45:10;;;;;;;;;;;;;;;17.58;56.05;100730.22;5000039;28;1168;-49
2023/07/23 11:47:49;;;;;;;;;;;;;;;17.61;56.16;100731.56;4999371;28;1034;-44
2023/07/23 11:50:17;;;;;;;;;;;;;;;17.56;56.35;100726.13;4999597;28;1902;-48
2023/07/23 11:52:43;;;;;;;;;;;;;;;17.59;56.37;100725.56;4999475;28;952;-46
2023/07/23 11:55:21;;;;;;;;;;;;;;;17.57;56.31;100734.09;4998594;28;1095;-49
2023/07/23 11:57:53;;;;;;;;;;;;;;;17.57;56.34;100727.75;4998173;28;1160;-46
2023/07/23 12:00:22;;;;;;;;;;;;;;;17.62;56.28;100733.22;4999529;28;1243;-45
2023/07/23 12:02:48;;;;;;;;;;;;;;;17.64;56.21;100733.75;4999460;28;1203;-45
2023/07/23 12:05:14;;;;;;;;;;;;;;;17.60;56.30;100727.19;4998935;28;1303;-46
2023/07/23 12:07:39;;;;;;;;;;;;;;;17.61;56.38;100740.66;4997471;28;1106;-47
2023/07/23 12:10:05;;;;;;;;;;;;;;;17.66;56.12;100737.06;4996846;28;1917;-42
2023/07/23 12:12:32;;;;;;;;;;;;;;;17.57;56.29;100749.75;4998513;28;1322;-48
2023/07/23 12:15:04;;;;;;;;;;;;;;;17.59;56.47;100742.84;4998900;28;1211;-48
2023/07/23 12:17:29;;;;;;;;;;;;;;;17.64;56.79;100733.75;4999146;28;1341;-49
2023/07/23 12:19:55;;;;;;;;;;;;;;;17.66;56.76;100736.25;5006756;28;1384;-44
2023/07/23 12:22:20;;;;;;;;;;;;;;;17.64;56.70;100739.25;4994172;28;1325;-45
2023/07/23 12:24:46;;;;;;;;;;;;;;;17.65;56.55;100740.91;4997982;28;1333;-45
2023/07/23 12:27:11;;;;;;;;;;;;;;;17.69;56.54;100744.75;4997853;28;1083;-46
2023/07/23 12:29:39;;;;;;;;;;;;;;;17.67;56.54;100740.63;4999606;28;1906;-43
2023/07/23 12:32:09;;;;;;;;;;;;;;;17.75;56.95;100740.03;4998726;28;1250;-47
2023/07/23 12:34:34;;;;;;;;;;;;;;;17.80;57.26;100731.78;4998296;28;1345;-44
2023/07/23 12:37:00;;;;;;;;;;;;;;;17.82;57.69;100729.53;4999018;28;1148;-49
2023/07/23 12:39:25;;;;;;;;;;;;;;;17.84;57.59;100737.50;4998143;28;1561;-49
2023/07/23 12:41:51;;;;;;;;;;;;;;;17.87;57.80;100742.47;4999216;28;1084;-50
2023/07/23 12:44:16;;;;;;;;;;;;;;;17.95;57.88;100759.22;4998550;28;1064;-52